Time;durP1;ratioP1;P1;durP2;ratioP2;P2;SDS_P1;SDS_P2;PMS_P1;PMS_P2;Temp;Humidity;BMP_temperature;BMP_pressure;BME280_temperature;BME280_humidity;BME280_pressure;Samples;Min_cycle;Max_cycle;Signal;HPM_P1;HPM_P2
2021/07/16 00:02:00;;;;;;;12.40;6.95;;;;;;;;;;5036600;28;20104;-70
2021/07/16 00:04:27;;;;;;;12.65;7.22;;;;;;;;;;5036312;28;20029;-68
2021/07/16 00:06:53;;;;;;;16.38;7.53;;;;;;;;;;5034958;28;20074;-70
2021/07/16 00:09:19;;;;;;;12.25;7.72;;;;;;;;;;5036220;28;20104;-68
2021/07/16 00:11:46;;;;;;;20.50;7.68;;;;;;;;;;5036196;28;20022;-67
2021/07/16 00:14:12;;;;;;;12.05;8.43;;;;;;;;;;5036447;28;20080;-69
2021/07/16 00:16:39;;;;;;;18.05;8.10;;;;;;;;;;5036000;28;20021;-69
2021/07/16 00:19:06;;;;;;;15.85;7.70;;;;;;;;;;5034468;28;20029;-68
2021/07/16 00:21:32;;;;;;;15.68;8.57;;;;;;;;;;5036363;28;20477;-67
2021/07/16 00:23:59;;;;;;;16.70;8.25;;;;;;;;;;5035948;28;20026;-70
2021/07/16 00:26:25;;;;;;;17.42;7.68;;;;;;;;;;5035926;28;20033;-68
2021/07/16 00:28:52;;;;;;;14.75;8.82;;;;;;;;;;5035856;28;20374;-67
2021/07/16 00:31:18;;;;;;;15.75;8.45;;;;;;;;;;5036210;28;20025;-69
2021/07/16 00:33:44;;;;;;;16.38;7.95;;;;;;;;;;5036030;28;20485;-70
2021/07/16 00:36:11;;;;;;;17.02;9.15;;;;;;;;;;5035287;28;20017;-72
2021/07/16 00:38:37;;;;;;;14.30;8.23;;;;;;;;;;5034380;28;20030;-68
2021/07/16 00:41:03;;;;;;;15.73;8.65;;;;;;;;;;5035804;28;20017;-69
2021/07/16 00:43:30;;;;;;;18.42;8.30;;;;;;;;;;5035669;28;20036;-69
2021/07/16 00:45:56;;;;;;;19.30;8.30;;;;;;;;;;5033999;28;20029;-71
2021/07/16 00:48:23;;;;;;;13.02;8.02;;;;;;;;;;5035693;28;20104;-68
2021/07/16 00:50:49;;;;;;;15.00;8.35;;;;;;;;;;5035528;28;20100;-68
2021/07/16 00:53:18;;;;;;;17.45;8.95;;;;;;;;;;5035428;28;20029;-70
2021/07/16 00:55:44;;;;;;;17.42;9.10;;;;;;;;;;5035534;28;20018;-66
2021/07/16 00:58:11;;;;;;;14.45;8.50;;;;;;;;;;5033965;28;20021;-68
2021/07/16 01:00:38;;;;;;;15.40;9.10;;;;;;;;;;5035331;28;20033;-69
2021/07/16 01:03:04;;;;;;;17.83;8.20;;;;;;;;;;5035226;28;20084;-70
2021/07/16 01:05:31;;;;;;;21.30;8.60;;;;;;;;;;5035089;28;20440;-70
2021/07/16 01:07:58;;;;;;;15.63;9.05;;;;;;;;;;5035134;28;20515;-68
2021/07/16 01:10:24;;;;;;;17.60;8.95;;;;;;;;;;5035033;28;20100;-68
2021/07/16 01:12:52;;;;;;;18.00;9.35;;;;;;;;;;5035086;28;20097;-68
2021/07/16 01:15:19;;;;;;;16.02;9.27;;;;;;;;;;5034883;28;20033;-69
2021/07/16 01:17:46;;;;;;;20.08;9.65;;;;;;;;;;5034898;28;20104;-68
2021/07/16 01:20:14;;;;;;;12.13;8.15;;;;;;;;;;5033799;28;20100;-70
2021/07/16 01:22:42;;;;;;;18.95;7.97;;;;;;;;;;5034880;28;20417;-68
2021/07/16 01:25:10;;;;;;;18.08;9.43;;;;;;;;;;5034793;28;20075;-70
2021/07/16 01:27:36;;;;;;;20.73;9.15;;;;;;;;;;5034440;28;20055;-68
2021/07/16 01:30:04;;;;;;;17.33;8.95;;;;;;;;;;5034685;28;20039;-71
2021/07/16 01:32:31;;;;;;;14.13;8.35;;;;;;;;;;5034717;28;20021;-68
2021/07/16 01:34:57;;;;;;;14.55;7.90;;;;;;;;;;5034597;28;20026;-69
2021/07/16 01:37:24;;;;;;;16.33;8.38;;;;;;;;;;5034552;28;20022;-67
2021/07/16 01:39:50;;;;;;;15.02;8.43;;;;;;;;;;5034534;28;20021;-69
2021/07/16 01:42:17;;;;;;;18.08;8.93;;;;;;;;;;5034779;28;20100;-70
2021/07/16 01:44:43;;;;;;;11.93;7.55;;;;;;;;;;5033206;28;20021;-69
2021/07/16 01:47:10;;;;;;;19.42;8.10;;;;;;;;;;5033438;28;20117;-68
2021/07/16 01:49:37;;;;;;;15.38;7.88;;;;;;;;;;5034053;28;20112;-69
2021/07/16 01:52:04;;;;;;;13.80;7.68;;;;;;;;;;5034777;28;20036;-68
2021/07/16 01:54:30;;;;;;;16.20;7.40;;;;;;;;;;5033960;28;20108;-68
2021/07/16 01:56:58;;;;;;;16.75;7.70;;;;;;;;;;5032609;28;20135;-68
2021/07/16 01:59:24;;;;;;;12.40;7.43;;;;;;;;;;5034348;28;20454;-69
2021/07/16 02:01:50;;;;;;;14.18;7.82;;;;;;;;;;5034255;28;20030;-69
2021/07/16 02:04:17;;;;;;;11.32;7.57;;;;;;;;;;5034208;28;20547;-69
2021/07/16 02:06:43;;;;;;;14.20;7.68;;;;;;;;;;5034083;28;20525;-68
2021/07/16 02:09:09;;;;;;;14.60;7.68;;;;;;;;;;5034215;28;20545;-68
2021/07/16 02:11:36;;;;;;;17.60;7.97;;;;;;;;;;5033845;28;20455;-70
2021/07/16 02:14:02;;;;;;;18.83;7.22;;;;;;;;;;5033942;28;20025;-67
2021/07/16 02:16:28;;;;;;;13.23;8.68;;;;;;;;;;5033867;28;20109;-68
2021/07/16 02:18:55;;;;;;;16.10;7.60;;;;;;;;;;5032604;28;20039;-69
2021/07/16 02:21:22;;;;;;;13.50;7.47;;;;;;;;;;5032667;28;20151;-69
2021/07/16 02:23:49;;;;;;;11.20;7.28;;;;;;;;;;5033841;28;20022;-70
2021/07/16 02:26:16;;;;;;;20.20;7.90;;;;;;;;;;5033817;28;20021;-69
2021/07/16 02:28:42;;;;;;;12.00;7.40;;;;;;;;;;5034047;28;20117;-66
2021/07/16 02:31:12;;;;;;;15.52;8.32;;;;;;;;;;5033822;28;20029;-71
2021/07/16 02:33:39;;;;;;;13.95;7.63;;;;;;;;;;5033585;28;20021;-72
2021/07/16 02:36:07;;;;;;;17.25;8.52;;;;;;;;;;5033668;28;20040;-69
2021/07/16 02:38:33;;;;;;;16.23;8.02;;;;;;;;;;5033367;28;20416;-68
2021/07/16 02:41:00;;;;;;;20.65;8.75;;;;;;;;;;5033700;28;20128;-68
2021/07/16 02:43:27;;;;;;;17.60;8.48;;;;;;;;;;5034015;28;20025;-70
2021/07/16 02:45:53;;;;;;;19.77;9.13;;;;;;;;;;5033332;28;20155;-70
2021/07/16 02:48:21;;;;;;;15.75;9.60;;;;;;;;;;5032474;28;20049;-71
2021/07/16 02:50:48;;;;;;;16.45;9.90;;;;;;;;;;5033262;28;20478;-68
2021/07/16 02:53:20;;;;;;;19.35;9.18;;;;;;;;;;5033877;28;20032;-69
2021/07/16 02:55:47;;;;;;;23.23;11.68;;;;;;;;;;5033545;28;20044;-68
2021/07/16 02:58:13;;;;;;;19.05;9.10;;;;;;;;;;5035029;28;20108;-68
2021/07/16 03:00:40;;;;;;;20.15;10.05;;;;;;;;;;5037845;28;20025;-69
2021/07/16 03:03:06;;;;;;;18.45;10.00;;;;;;;;;;5037536;28;20083;-70
2021/07/16 03:05:36;;;;;;;16.20;10.38;;;;;;;;;;5036166;28;20044;-69
2021/07/16 03:08:03;;;;;;;14.40;9.93;;;;;;;;;;5037462;28;20030;-67
2021/07/16 03:10:31;;;;;;;15.75;10.10;;;;;;;;;;5037356;28;20083;-70
2021/07/16 03:12:58;;;;;;;15.45;9.52;;;;;;;;;;5037377;28;20470;-68
2021/07/16 03:15:26;;;;;;;16.95;10.75;;;;;;;;;;5035881;28;20084;-71
2021/07/16 03:17:53;;;;;;;18.60;10.60;;;;;;;;;;5037210;28;20020;-68
2021/07/16 03:20:26;;;;;;;19.38;10.38;;;;;;;;;;5036836;28;20030;-69
2021/07/16 03:22:53;;;;;;;17.60;10.45;;;;;;;;;;5037382;28;20494;-70
2021/07/16 03:25:20;;;;;;;17.55;10.85;;;;;;;;;;5035758;28;20189;-70
2021/07/16 03:27:47;;;;;;;18.00;11.57;;;;;;;;;;5037104;28;20075;-70
2021/07/16 03:30:15;;;;;;;16.33;11.70;;;;;;;;;;5037093;28;20068;-70
2021/07/16 03:32:41;;;;;;;15.25;11.55;;;;;;;;;;5037183;28;20102;-72
2021/07/16 03:35:09;;;;;;;21.65;12.27;;;;;;;;;;5035485;28;20025;-67
2021/07/16 03:37:35;;;;;;;21.83;12.15;;;;;;;;;;5036808;28;20022;-70
2021/07/16 03:40:02;;;;;;;14.30;11.40;;;;;;;;;;5036841;28;20053;-70
2021/07/16 03:42:29;;;;;;;16.38;11.48;;;;;;;;;;5036817;28;20021;-68
2021/07/16 03:44:55;;;;;;;18.10;12.52;;;;;;;;;;5035697;28;20113;-69
2021/07/16 03:47:22;;;;;;;19.10;12.85;;;;;;;;;;5036306;28;20052;-69
2021/07/16 03:49:48;;;;;;;18.65;11.85;;;;;;;;;;5036767;28;20495;-69
2021/07/16 03:52:15;;;;;;;20.98;12.38;;;;;;;;;;5036615;28;20024;-68
2021/07/16 03:54:41;;;;;;;20.10;12.73;;;;;;;;;;5036810;28;20369;-71
2021/07/16 03:57:08;;;;;;;20.65;12.38;;;;;;;;;;5036411;28;20065;-72
2021/07/16 03:59:35;;;;;;;22.33;11.82;;;;;;;;;;5036580;28;20076;-68
2021/07/16 04:02:01;;;;;;;16.13;11.90;;;;;;;;;;5036435;28;20022;-70
2021/07/16 04:04:28;;;;;;;22.35;12.77;;;;;;;;;;5036341;28;20018;-69
2021/07/16 04:06:55;;;;;;;20.98;13.77;;;;;;;;;;5036421;28;20091;-69
2021/07/16 04:09:29;;;;;;;18.83;13.60;;;;;;;;;;5035695;28;20029;-69
2021/07/16 04:12:09;;;;;;;20.33;13.20;;;;;;;;;;5036582;28;20529;-68
2021/07/16 04:14:36;;;;;;;16.83;12.48;;;;;;;;;;5035999;28;20492;-66
2021/07/16 04:17:04;;;;;;;18.75;11.70;;;;;;;;;;5035997;28;20068;-67
2021/07/16 04:19:30;;;;;;;14.05;11.43;;;;;;;;;;5036060;28;20079;-70
2021/07/16 04:21:57;;;;;;;19.52;11.43;;;;;;;;;;5036009;28;20033;-68
2021/07/16 04:24:23;;;;;;;17.20;11.63;;;;;;;;;;5035991;28;20101;-70
2021/07/16 04:26:49;;;;;;;14.65;11.50;;;;;;;;;;5035929;28;20021;-70
2021/07/16 04:29:15;;;;;;;21.63;12.55;;;;;;;;;;5035880;28;20037;-69
2021/07/16 04:31:42;;;;;;;17.00;12.73;;;;;;;;;;5036108;28;20533;-70
2021/07/16 04:34:08;;;;;;;20.00;12.63;;;;;;;;;;5035797;28;20017;-68
2021/07/16 04:36:35;;;;;;;17.08;13.07;;;;;;;;;;5035587;28;20033;-69
2021/07/16 04:39:01;;;;;;;16.00;12.50;;;;;;;;;;5034398;28;20109;-70
2021/07/16 04:41:27;;;;;;;16.27;12.82;;;;;;;;;;5035659;28;20064;-67
2021/07/16 04:43:55;;;;;;;16.17;12.18;;;;;;;;;;5034387;28;20121;-69
2021/07/16 04:46:22;;;;;;;19.45;12.85;;;;;;;;;;5035558;28;20482;-67
2021/07/16 04:48:48;;;;;;;17.42;13.38;;;;;;;;;;5035250;28;20120;-70
2021/07/16 04:51:24;;;;;;;17.05;13.68;;;;;;;;;;5035380;28;20025;-71
2021/07/16 04:53:54;;;;;;;19.10;13.35;;;;;;;;;;5035332;28;20351;-70
2021/07/16 04:56:20;;;;;;;17.58;13.27;;;;;;;;;;5035352;28;20029;-69
2021/07/16 04:58:46;;;;;;;17.40;12.70;;;;;;;;;;5035154;28;20544;-69
2021/07/16 05:01:13;;;;;;;14.63;11.50;;;;;;;;;;5035356;28;20025;-67
2021/07/16 05:03:39;;;;;;;18.00;12.13;;;;;;;;;;5035213;28;20101;-69
2021/07/16 05:06:05;;;;;;;15.50;11.55;;;;;;;;;;5035127;28;20108;-68
2021/07/16 05:08:32;;;;;;;19.33;13.80;;;;;;;;;;5035136;28;20120;-67
2021/07/16 05:10:58;;;;;;;23.08;15.38;;;;;;;;;;5035073;28;20014;-70
2021/07/16 05:13:26;;;;;;;23.20;15.57;;;;;;;;;;5033843;28;20025;-70
2021/07/16 05:15:52;;;;;;;23.60;15.75;;;;;;;;;;5034936;28;20118;-69
2021/07/16 05:18:19;;;;;;;24.50;15.35;;;;;;;;;;5035017;28;20063;-71
2021/07/16 05:20:45;;;;;;;18.25;13.25;;;;;;;;;;5034624;28;20028;-68
2021/07/16 05:23:11;;;;;;;19.35;12.75;;;;;;;;;;5034164;28;20378;-69
2021/07/16 05:25:39;;;;;;;17.83;12.55;;;;;;;;;;5034808;28;20112;-71
2021/07/16 05:28:05;;;;;;;17.38;13.20;;;;;;;;;;5034476;28;20409;-69
2021/07/16 05:30:32;;;;;;;16.48;12.80;;;;;;;;;;5034508;28;20378;-72
2021/07/16 05:32:58;;;;;;;24.77;12.90;;;;;;;;;;5034802;28;20485;-70
2021/07/16 05:35:25;;;;;;;21.38;14.05;;;;;;;;;;5034596;28;20056;-67
2021/07/16 05:37:51;;;;;;;19.58;12.45;;;;;;;;;;5034618;28;20021;-70
2021/07/16 05:40:17;;;;;;;15.30;11.70;;;;;;;;;;5034522;28;20048;-69
2021/07/16 05:42:44;;;;;;;16.85;11.80;;;;;;;;;;5034417;28;20033;-69
2021/07/16 05:45:10;;;;;;;14.88;10.40;;;;;;;;;;5034561;28;20075;-68
2021/07/16 05:47:37;;;;;;;16.10;10.73;;;;;;;;;;5033871;28;20379;-68
2021/07/16 05:50:03;;;;;;;16.02;10.27;;;;;;;;;;5034297;28;20060;-71
2021/07/16 05:52:32;;;;;;;12.75;10.75;;;;;;;;;;5034579;28;20029;-68
2021/07/16 05:54:58;;;;;;;19.50;10.75;;;;;;;;;;5034215;28;20020;-68
2021/07/16 05:57:26;;;;;;;17.50;10.13;;;;;;;;;;5032945;28;20061;-67
2021/07/16 05:59:53;;;;;;;14.80;10.27;;;;;;;;;;5034222;28;20025;-68
2021/07/16 06:02:19;;;;;;;12.70;9.90;;;;;;;;;;5034214;28;20021;-69
2021/07/16 06:04:46;;;;;;;14.15;9.27;;;;;;;;;;5034128;28;20101;-71
2021/07/16 06:07:12;;;;;;;13.65;9.57;;;;;;;;;;5034093;28;20022;-71
2021/07/16 06:09:39;;;;;;;19.35;9.82;;;;;;;;;;5033961;28;20534;-69
2021/07/16 06:12:05;;;;;;;14.90;8.55;;;;;;;;;;5033895;28;20018;-69
2021/07/16 06:14:31;;;;;;;15.77;9.75;;;;;;;;;;5033986;28;20027;-70
2021/07/16 06:16:58;;;;;;;17.08;10.35;;;;;;;;;;5033831;28;20041;-68
2021/07/16 06:19:24;;;;;;;20.83;9.60;;;;;;;;;;5033720;28;20463;-68
2021/07/16 06:21:51;;;;;;;12.43;8.63;;;;;;;;;;5032480;28;20024;-70
2021/07/16 06:24:17;;;;;;;13.27;8.18;;;;;;;;;;5032314;28;20108;-69
2021/07/16 06:26:43;;;;;;;11.30;7.82;;;;;;;;;;5033746;28;20064;-69
2021/07/16 06:29:10;;;;;;;11.57;8.02;;;;;;;;;;5033677;28;20112;-69
2021/07/16 06:31:36;;;;;;;11.05;7.93;;;;;;;;;;5033635;28;20017;-69
2021/07/16 06:34:03;;;;;;;10.20;7.43;;;;;;;;;;5033395;28;20018;-70
2021/07/16 06:36:30;;;;;;;13.45;8.40;;;;;;;;;;5033636;28;20033;-70
2021/07/16 06:38:56;;;;;;;10.98;7.63;;;;;;;;;;5033374;28;20036;-67
2021/07/16 06:41:22;;;;;;;8.63;7.60;;;;;;;;;;5032208;28;20446;-70
2021/07/16 06:43:49;;;;;;;12.20;8.65;;;;;;;;;;5034068;28;20104;-70
2021/07/16 06:46:16;;;;;;;17.13;8.77;;;;;;;;;;5031160;28;20056;-69
2021/07/16 06:48:43;;;;;;;13.40;7.95;;;;;;;;;;5033578;28;20021;-68
2021/07/16 06:51:10;;;;;;;9.27;7.55;;;;;;;;;;5033532;28;20349;-69
2021/07/16 06:53:36;;;;;;;13.60;8.88;;;;;;;;;;5033542;28;20072;-69
2021/07/16 06:56:03;;;;;;;11.57;8.18;;;;;;;;;;5033465;28;20026;-70
2021/07/16 06:58:30;;;;;;;10.90;8.07;;;;;;;;;;5032033;28;20041;-69
2021/07/16 07:00:56;;;;;;;14.65;8.43;;;;;;;;;;5032399;28;20025;-70
2021/07/16 07:03:27;;;;;;;13.45;8.77;;;;;;;;;;5032275;28;20426;-68
2021/07/16 07:05:54;;;;;;;9.95;8.10;;;;;;;;;;5033631;28;20021;-67
2021/07/16 07:08:20;;;;;;;14.68;7.75;;;;;;;;;;5032090;28;20026;-68
2021/07/16 07:10:47;;;;;;;10.75;8.38;;;;;;;;;;5033261;28;20101;-70
2021/07/16 07:13:13;;;;;;;16.05;8.65;;;;;;;;;;5033264;28;20021;-70
2021/07/16 07:15:39;;;;;;;19.20;9.07;;;;;;;;;;5033100;28;20116;-69
2021/07/16 07:18:06;;;;;;;10.60;8.57;;;;;;;;;;5033264;28;20101;-69
2021/07/16 07:20:33;;;;;;;11.93;9.27;;;;;;;;;;5033601;28;20100;-68
2021/07/16 07:23:03;;;;;;;14.43;8.57;;;;;;;;;;5033388;28;20028;-71
2021/07/16 07:25:30;;;;;;;12.65;8.50;;;;;;;;;;5033449;28;20125;-69
2021/07/16 07:27:57;;;;;;;19.05;9.25;;;;;;;;;;5031813;28;20124;-68
2021/07/16 07:30:23;;;;;;;20.88;8.85;;;;;;;;;;5033182;28;20045;-70
2021/07/16 07:32:50;;;;;;;12.65;8.80;;;;;;;;;;5032726;28;20381;-70
2021/07/16 07:35:16;;;;;;;24.02;9.95;;;;;;;;;;5033020;28;20033;-68
2021/07/16 07:37:43;;;;;;;11.05;8.75;;;;;;;;;;5032989;28;20054;-66
2021/07/16 07:40:11;;;;;;;13.45;8.63;;;;;;;;;;5031799;28;20030;-67
2021/07/16 07:42:37;;;;;;;12.25;8.88;;;;;;;;;;5033129;28;20017;-68
2021/07/16 07:45:04;;;;;;;17.20;9.10;;;;;;;;;;5034038;28;20109;-67
2021/07/16 07:47:33;;;;;;;12.90;9.68;;;;;;;;;;5036165;28;20150;-68
2021/07/16 07:50:00;;;;;;;22.90;9.32;;;;;;;;;;5036551;28;20049;-70
2021/07/16 07:52:28;;;;;;;11.95;9.13;;;;;;;;;;5036685;28;20053;-69
2021/07/16 07:54:54;;;;;;;16.83;9.90;;;;;;;;;;5035263;28;20052;-68
2021/07/16 07:57:21;;;;;;;19.10;9.60;;;;;;;;;;5036158;28;20073;-70
2021/07/16 07:59:47;;;;;;;15.35;9.02;;;;;;;;;;5036394;28;20040;-69
2021/07/16 08:02:14;;;;;;;19.88;9.75;;;;;;;;;;5035053;28;20018;-69
2021/07/16 08:04:41;;;;;;;18.75;10.57;;;;;;;;;;5036417;28;20053;-68
2021/07/16 08:07:07;;;;;;;17.55;9.65;;;;;;;;;;5036564;28;20462;-68
2021/07/16 08:09:33;;;;;;;14.07;9.27;;;;;;;;;;5036204;28;20156;-69
2021/07/16 08:12:01;;;;;;;12.13;8.93;;;;;;;;;;5036186;28;20097;-69
2021/07/16 08:14:27;;;;;;;11.60;8.93;;;;;;;;;;5036396;28;20049;-70
2021/07/16 08:16:54;;;;;;;14.18;8.30;;;;;;;;;;5036099;28;20029;-70
2021/07/16 08:19:20;;;;;;;13.73;8.93;;;;;;;;;;5036270;28;20496;-68
2021/07/16 08:21:47;;;;;;;16.77;8.90;;;;;;;;;;5036029;28;20025;-69
2021/07/16 08:24:14;;;;;;;17.35;8.60;;;;;;;;;;5036239;28;20026;-70
2021/07/16 08:26:41;;;;;;;16.23;8.15;;;;;;;;;;5035828;28;20155;-69
2021/07/16 08:29:08;;;;;;;10.68;8.20;;;;;;;;;;5035820;28;20025;-67
2021/07/16 08:31:34;;;;;;;10.82;7.63;;;;;;;;;;5035811;28;20041;-72
2021/07/16 08:34:00;;;;;;;11.90;8.25;;;;;;;;;;5035813;28;20031;-70
2021/07/16 08:36:27;;;;;;;13.50;8.35;;;;;;;;;;5035583;28;20037;-69
2021/07/16 08:38:53;;;;;;;11.68;7.75;;;;;;;;;;5035792;28;20124;-69
2021/07/16 08:41:19;;;;;;;13.90;7.35;;;;;;;;;;5034225;28;20101;-67
2021/07/16 08:43:45;;;;;;;11.00;7.75;;;;;;;;;;5035162;28;20021;-70
2021/07/16 08:46:12;;;;;;;13.52;7.95;;;;;;;;;;5034261;28;20144;-69
2021/07/16 08:48:40;;;;;;;16.67;8.27;;;;;;;;;;5035432;28;20029;-72
2021/07/16 08:51:07;;;;;;;14.40;8.70;;;;;;;;;;5035409;28;20017;-72
2021/07/16 08:53:34;;;;;;;13.98;7.57;;;;;;;;;;5034075;28;20021;-69
2021/07/16 08:56:00;;;;;;;19.88;9.30;;;;;;;;;;5034529;28;20383;-68
2021/07/16 08:58:27;;;;;;;10.00;7.40;;;;;;;;;;5035351;28;20026;-68
2021/07/16 09:00:53;;;;;;;10.75;7.97;;;;;;;;;;5033989;28;20029;-69
2021/07/16 09:03:19;;;;;;;12.20;8.98;;;;;;;;;;5035105;28;20470;-68
2021/07/16 09:05:47;;;;;;;17.50;8.70;;;;;;;;;;5035011;28;20056;-69
2021/07/16 09:08:17;;;;;;;19.17;9.60;;;;;;;;;;5033777;28;20489;-67
2021/07/16 09:10:48;;;;;;;15.87;9.43;;;;;;;;;;5035121;28;20028;-69
2021/07/16 09:13:15;;;;;;;13.85;9.50;;;;;;;;;;5034991;28;20535;-70
2021/07/16 09:15:49;;;;;;;16.20;9.10;;;;;;;;;;5033666;28;20040;-70
2021/07/16 09:18:22;;;;;;;12.25;9.38;;;;;;;;;;5035005;28;20033;-71
2021/07/16 09:20:50;;;;;;;18.63;8.63;;;;;;;;;;5035077;28;20022;-70
2021/07/16 09:23:24;;;;;;;16.05;8.25;;;;;;;;;;5033551;28;20056;-71
2021/07/16 09:26:07;;;;;;;14.95;8.63;;;;;;;;;;5034921;28;20108;-71
2021/07/16 09:28:33;;;;;;;14.50;9.15;;;;;;;;;;5034751;28;20509;-68
2021/07/16 09:31:17;;;;;;;12.90;8.95;;;;;;;;;;5033420;28;20033;-70
2021/07/16 09:33:43;;;;;;;13.63;9.38;;;;;;;;;;5034721;28;20026;-70
2021/07/16 09:36:10;;;;;;;13.45;9.30;;;;;;;;;;5033246;28;20082;-69
2021/07/16 09:38:36;;;;;;;13.35;8.90;;;;;;;;;;5034579;28;20036;-72
2021/07/16 09:41:06;;;;;;;10.90;9.20;;;;;;;;;;5034692;28;20030;-68
2021/07/16 09:43:32;;;;;;;13.55;10.15;;;;;;;;;;5034094;28;20386;-70
2021/07/16 09:46:03;;;;;;;10.80;9.40;;;;;;;;;;5034169;28;20124;-71
2021/07/16 09:48:33;;;;;;;11.77;8.98;;;;;;;;;;5034109;28;20374;-71
2021/07/16 09:51:08;;;;;;;14.23;9.73;;;;;;;;;;5034481;28;20021;-67
2021/07/16 09:53:42;;;;;;;12.30;10.38;;;;;;;;;;5034465;28;20475;-69
2021/07/16 09:56:12;;;;;;;14.07;10.27;;;;;;;;;;5034289;28;20025;-71
2021/07/16 09:58:39;;;;;;;16.25;10.50;;;;;;;;;;5034301;28;20072;-69
2021/07/16 10:01:05;;;;;;;13.50;11.77;;;;;;;;;;5034116;28;20072;-70
2021/07/16 10:03:32;;;;;;;16.50;9.70;;;;;;;;;;5034022;28;20019;-71
2021/07/16 10:06:01;;;;;;;18.77;10.82;;;;;;;;;;5034131;28;20030;-69
2021/07/16 10:08:31;;;;;;;15.13;10.50;;;;;;;;;;5033308;28;20033;-69
2021/07/16 10:10:57;;;;;;;16.05;10.30;;;;;;;;;;5034215;28;20108;-69
2021/07/16 10:13:24;;;;;;;19.20;10.73;;;;;;;;;;5032707;28;20437;-71
2021/07/16 10:15:50;;;;;;;14.00;10.70;;;;;;;;;;5034142;28;20431;-69
2021/07/16 10:18:17;;;;;;;19.35;11.10;;;;;;;;;;5034166;28;20116;-70
2021/07/16 10:20:43;;;;;;;18.10;11.90;;;;;;;;;;5033916;28;20029;-70
2021/07/16 10:23:10;;;;;;;18.63;11.00;;;;;;;;;;5033809;28;20036;-71
2021/07/16 10:25:36;;;;;;;17.00;10.60;;;;;;;;;;5033888;28;20517;-70
2021/07/16 10:28:03;;;;;;;14.60;11.10;;;;;;;;;;5033840;28;20030;-69
2021/07/16 10:30:33;;;;;;;16.58;10.75;;;;;;;;;;5033801;28;20070;-68
2021/07/16 10:33:00;;;;;;;19.45;10.48;;;;;;;;;;5033956;28;20021;-70
2021/07/16 10:35:28;;;;;;;16.80;10.98;;;;;;;;;;5033729;28;20032;-70
2021/07/16 10:37:55;;;;;;;15.20;11.27;;;;;;;;;;5033542;28;20517;-69
2021/07/16 10:40:34;;;;;;;15.27;11.88;;;;;;;;;;5033654;28;20163;-68
2021/07/16 10:43:01;;;;;;;12.80;11.50;;;;;;;;;;5033295;28;20388;-68
2021/07/16 10:45:45;;;;;;;13.55;11.52;;;;;;;;;;5033650;28;20163;-69
2021/07/16 10:48:11;;;;;;;14.98;11.55;;;;;;;;;;4993153;28;20126;-68
2021/07/16 10:50:38;;;;;;;17.52;11.27;;;;;;;;;;4994227;28;20046;-71
2021/07/16 10:53:05;;;;;;;23.00;13.35;;;;;;;;;;4994215;28;20041;-69
2021/07/16 10:55:37;;;;;;;17.05;12.35;;;;;;;;;;4994251;28;20041;-71
2021/07/16 10:58:30;;;;;;;16.13;12.50;;;;;;;;;;4994196;28;20038;-70
2021/07/16 11:01:03;;;;;;;16.23;11.45;;;;;;;;;;4992943;28;20035;-71
2021/07/16 11:03:44;;;;;;;23.42;11.15;;;34.20;65.30;;;;;;4994113;28;20084;-72
2021/07/16 11:06:15;;;;;;;14.52;10.50;;;34.80;64.40;;;;;;4992910;28;20034;-71
2021/07/16 11:08:40;;;;;;;16.05;10.50;;;34.80;64.50;;;;;;4992637;28;20077;-69
2021/07/16 11:11:14;;;;;;;14.40;9.05;;;35.00;63.40;;;;;;4993997;28;20180;-69
2021/07/16 11:13:44;;;;;;;12.68;8.43;;;35.00;61.80;;;;;;4994006;28;20117;-71
2021/07/16 11:16:23;;;;;;;16.37;8.13;;;35.30;60.20;;;;;;4993891;28;20045;-70
2021/07/16 11:19:04;;;;;;;12.10;7.93;;;36.00;60.10;;;;;;4994532;28;20031;-70
2021/07/16 11:21:52;;;;;;;10.70;6.57;;;36.30;59.30;;;;;;4997653;28;20383;-70
2021/07/16 11:24:18;;;;;;;11.80;7.40;;;36.90;56.90;;;;;;4998002;28;20030;-69
2021/07/16 11:27:02;;;;;;;10.82;7.28;;;37.30;56.50;;;;;;4997666;28;20038;-67
2021/07/16 11:29:40;;;;;;;16.92;7.63;;;37.50;56.40;;;;;;4997589;28;20030;-68
2021/07/16 11:32:09;;;;;;;13.68;7.28;;;37.90;54.90;;;;;;4997776;28;20033;-70
2021/07/16 11:34:37;;;;;;;11.98;6.93;;;37.20;55.00;;;;;;4997455;28;20034;-69
2021/07/16 11:37:05;;;;;;;12.30;6.63;;;;;;;;;;4997887;28;20069;-67
2021/07/16 11:39:32;;;;;;;10.57;6.80;;;;;;;;;;4997575;28;20095;-69
2021/07/16 11:41:59;;;;;;;12.23;6.30;;;;;;;;;;4997375;28;20550;-68
2021/07/16 11:44:30;;;;;;;12.98;6.85;;;;;;;;;;4997054;28;20464;-69
2021/07/16 11:46:57;;;;;;;12.05;7.30;;;;;;;;;;5020863;28;20090;-67
2021/07/16 11:49:24;;;;;;;11.00;7.47;;;;;;;;;;5036484;28;20105;-68
2021/07/16 11:51:57;;;;;;;9.25;8.10;;;;;;;;;;5036549;28;20044;-68
2021/07/16 11:54:24;;;;;;;11.45;7.97;;;;;;;;;;5035632;28;20370;-68
2021/07/16 11:56:57;;;;;;;12.15;7.47;;;;;;;;;;5036529;28;20033;-69
2021/07/16 11:59:25;;;;;;;15.40;8.20;;;;;;;;;;5036578;28;20044;-69
2021/07/16 12:02:07;;;;;;;14.77;8.45;;;;;;;;;;5036377;28;20025;-67
2021/07/16 12:04:33;;;;;;;14.65;8.27;;;;;;;;;;5036448;28;20057;-68
2021/07/16 12:07:00;;;;;;;13.00;8.30;;;;;;;;;;5036453;28;20033;-70
2021/07/16 12:09:33;;;;;;;12.35;8.32;;;;;;;;;;5036382;28;20029;-69
2021/07/16 12:12:03;;;;;;;12.27;8.57;;;;;;;;;;5036226;28;20021;-68
2021/07/16 12:14:29;;;;;;;10.73;9.38;;;;;;;;;;5036118;28;20470;-68
2021/07/16 12:16:56;;;;;;;12.65;9.43;;;;;;;;;;5036309;28;20112;-69
2021/07/16 12:19:22;;;;;;;14.90;9.27;;;;;;;;;;5036002;28;20076;-70
2021/07/16 12:21:49;;;;;;;12.63;9.02;;;;;;;;;;5036001;28;20482;-68
2021/07/16 12:24:15;;;;;;;10.25;9.07;;;;;;;;;;5034693;28;20417;-68
2021/07/16 12:26:41;;;;;;;13.07;8.98;;;34.80;62.90;;;;;;5036287;28;20028;-69
2021/07/16 12:29:10;;;;;;;11.38;8.27;;;34.90;63.20;;;;;;5035996;28;20033;-69
2021/07/16 12:31:37;;;;;;;13.02;8.45;;;36.50;60.60;;;;;;5035557;28;20057;-69
2021/07/16 12:34:21;;;;;;;13.85;9.00;;;37.10;59.20;;;;;;5035761;28;20100;-68
2021/07/16 12:36:49;;;;;;;10.13;8.32;;;;;;;;;;5035770;28;20095;-67
2021/07/16 12:39:22;;;;;;;14.52;8.52;;;;;;;;;;5035430;28;20374;-69
2021/07/16 12:41:49;;;;;;;12.43;8.90;;;35.60;62.20;;;;;;5035656;28;20100;-68
2021/07/16 12:44:16;;;;;;;14.80;9.20;;;36.00;62.20;;;;;;5034401;28;20025;-68
2021/07/16 12:46:42;;;;;;;18.75;8.35;;;35.80;62.70;;;;;;5035233;28;20487;-68
2021/07/16 12:49:10;;;;;;;11.90;7.70;;;37.20;60.40;;;;;;5035523;28;20036;-68
2021/07/16 12:51:39;;;;;;;13.43;8.05;;;;;;;;;;5035670;28;20025;-73
2021/07/16 12:54:05;;;;;;;14.88;8.38;;;;;;;;;;5035491;28;20052;-67
2021/07/16 12:56:35;;;;;;;13.40;8.48;;;;;;;;;;5035425;28;20537;-69
2021/07/16 12:59:02;;;;;;;19.00;8.68;;;;;;;;;;5034163;28;20022;-70
2021/07/16 13:01:31;;;;;;;11.48;7.93;;;;;;;;;;5035579;28;20112;-70
2021/07/16 13:03:57;;;;;;;16.20;8.32;;;;;;;;;;5035247;28;20063;-69
2021/07/16 13:06:26;;;;;;;12.68;7.53;;;;;;;;;;5035414;28;20120;-68
2021/07/16 13:09:11;;;;;;;14.52;8.88;;;;;;;;;;5035169;28;20443;-69
2021/07/16 13:11:38;;;;;;;12.32;8.18;;;;;;;;;;5035124;28;20045;-69
2021/07/16 13:14:04;;;;;;;13.68;7.88;;;;;;;;;;5035095;28;20488;-68
2021/07/16 13:16:30;;;;;;;16.60;9.10;;;;;;;;;;5035274;28;20044;-71
2021/07/16 13:18:58;;;;;;;13.50;8.48;;;;;;;;;;5035004;28;20034;-69
2021/07/16 13:21:25;;;;;;;13.27;7.93;;;;;;;;;;5034999;28;20021;-67
2021/07/16 13:23:51;;;;;;;11.35;7.10;;;;;;;;;;5034905;28;20026;-66
2021/07/16 13:26:18;;;;;;;17.90;8.05;;;;;;;;;;5034831;28;20112;-69
2021/07/16 13:28:45;;;;;;;15.05;8.38;;;;;;;;;;5034794;28;20461;-68
2021/07/16 13:31:12;;;;;;;11.48;7.80;;;;;;;;;;5034706;28;20479;-68
2021/07/16 13:33:39;;;;;;;13.32;7.63;;;;;;;;;;5034639;28;20492;-69
2021/07/16 13:36:06;;;;;;;10.00;7.25;;;;;;;;;;5034573;28;20036;-67
2021/07/16 13:38:33;;;;;;;14.50;7.40;;;;;;;;;;5034696;28;20024;-69
2021/07/16 13:41:07;;;;;;;9.40;7.43;;;;;;;;;;5034532;28;20045;-67
2021/07/16 13:43:34;;;;;;;13.45;6.35;;;;;;;;;;5033642;28;20061;-68
2021/07/16 13:46:01;;;;;;;11.95;6.65;;;;;;;;;;5033230;28;20406;-68
2021/07/16 13:48:27;;;;;;;12.85;6.15;;;;;;;;;;5034429;28;20040;-67
2021/07/16 13:50:54;;;;;;;9.80;6.20;;;;;;;;;;5034435;28;20095;-69
2021/07/16 13:53:20;;;;;;;16.35;6.75;;;;;;;;;;5034755;28;20033;-67
2021/07/16 13:55:46;;;;;;;14.25;7.43;;;;;;;;;;5034328;28;20038;-70
2021/07/16 13:58:12;;;;;;;10.82;6.93;;;;;;;;;;5034324;28;20088;-70
2021/07/16 14:00:39;;;;;;;10.68;6.55;;;;;;;;;;5034241;28;20017;-72
2021/07/16 14:03:06;;;;;;;17.13;7.30;;;;;;;;;;5034434;28;20022;-67
2021/07/16 14:05:32;;;;;;;12.60;7.00;;;;;;;;;;5032839;28;20208;-67
2021/07/16 14:07:59;;;;;;;12.60;7.53;;;;;;;;;;5034179;28;20026;-69
2021/07/16 14:10:25;;;;;;;16.02;8.88;;;;;;;;;;5034030;28;20463;-67
2021/07/16 14:12:52;;;;;;;11.32;7.45;;;;;;;;;;5033966;28;20036;-67
2021/07/16 14:15:18;;;;;;;18.42;7.38;;;;;;;;;;5033925;28;20088;-70
2021/07/16 14:17:45;;;;;;;26.45;10.18;;;;;;;;;;5034238;28;20018;-70
2021/07/16 14:20:12;;;;;;;23.33;9.60;;;;;;;;;;5034029;28;20017;-67
2021/07/16 14:22:38;;;;;;;26.70;10.80;;;;;;;;;;5033890;28;20100;-69